Time,TemperatureF,DewpointF,PressureIn,WindDirection,WindDirectionDegrees,WindSpeedMPH,WindSpeedGustMPH,Humidity,HourlyPrecipIn,Conditions,Clouds,dailyrainin,SolarRadiationWatts/m^2,SoftwareType,DateUTC
2013-12-16 00:01:00,38.0,29.5,30.14,SW,227,0.0,0.0,71,0.00,,---,0.00,0.00,VWS V14.01,2013-12-16 06:01:00,
2013-12-16 00:06:00,37.8,29.3,30.15,West,280,1.0,1.0,71,0.00,,---,0.00,0.00,VWS V14.01,2013-12-16 06:06:00,
2013-12-16 00:11:00,37.6,29.1,30.15,West,280,1.0,2.0,71,0.00,,---,0.00,0.00,VWS V14.01,2013-12-16 06:11:00,
2013-12-16 00:16:00,37.4,29.2,30.14,West,280,0.0,1.0,72,0.00,,---,0.00,0.00,VWS V14.01,2013-12-16 06:16:00,
2013-12-16 00:21:00,37.2,29.0,30.14,SSW,205,3.0,4.0,72,0.00,,---,0.00,0.00,VWS V14.01,2013-12-16 06:21:00,
2013-12-16 00:26:00,37.1,28.9,30.14,SW,219,2.0,5.0,72,0.00,,---,0.00,0.00,VWS V14.01,2013-12-16 06:26:00,
2013-12-16 00:31:00,37.1,28.9,30.14,South,187,5.0,5.0,72,0.00,,---,0.00,0.00,VWS V14.01,2013-12-16 06:31:00,
2013-12-16 00:36:00,37.1,28.9,30.14,South,188,3.0,4.0,72,0.00,,---,0.00,0.00,VWS V14.01,2013-12-16 06:36:00,
2013-12-16 00:41:00,37.0,28.8,30.14,SSW,195,2.0,2.0,72,0.00,,---,0.00,0.00,VWS V14.01,2013-12-16 06:41:00,
2013-12-16 00:46:00,37.0,28.8,30.14,SSW,196,3.0,3.0,72,0.00,,---,0.00,0.00,VWS V14.01,2013-12-16 06:46:00,
2013-12-16 00:51:00,37.0,28.8,30.14,South,188,2.0,3.0,72,0.00,,---,0.00,0.00,VWS V14.01,2013-12-16 06:51:00,
2013-12-16 00:56:00,37.0,28.8,30.14,South,182,2.0,2.0,72,0.00,,---,0.00,0.00,VWS V14.01,2013-12-16 06:56:00,
2013-12-16 01:01:00,36.9,28.7,30.14,South,182,1.0,2.0,72,0.00,,---,0.00,0.00,VWS V14.01,2013-12-16 07:01:00,
2013-12-16 01:06:00,36.8,28.3,30.13,South,182,1.0,2.0,71,0.00,,---,0.00,0.00,VWS V14.01,2013-12-16 07:06:00,
2013-12-16 01:11:00,36.3,27.8,30.13,South,181,4.0,4.0,71,0.00,,---,0.00,0.00,VWS V14.01,2013-12-16 07:11:00,
2013-12-16 01:16:00,35.6,27.8,30.13,South,178,4.0,4.0,73,0.00,,---,0.00,0.00,VWS V14.01,2013-12-16 07:16:00,
2013-12-16 01:21:00,35.3,27.5,30.12,SSE,166,4.0,4.0,73,0.00,,---,0.00,0.00,VWS V14.01,2013-12-16 07:21:00,
2013-12-16 01:26:00,35.0,27.2,30.12,South,169,3.0,3.0,73,0.00,,---,0.00,0.00,VWS V14.01,2013-12-16 07:26:00,
2013-12-16 01:31:00,34.7,27.3,30.12,South,184,2.0,2.0,74,0.00,,---,0.00,0.00,VWS V14.01,2013-12-16 07:31:00,
2013-12-16 01:36:00,34.6,27.2,30.12,South,184,1.0,2.0,74,0.00,,---,0.00,0.00,VWS V14.01,2013-12-16 07:36:00,
2013-12-16 01:41:00,34.6,27.2,30.12,South,182,2.0,2.0,74,0.00,,---,0.00,0.00,VWS V14.01,2013-12-16 07:41:00,
2013-12-16 01:46:00,34.5,27.1,30.12,South,182,0.0,0.0,74,0.00,,---,0.00,0.00,VWS V14.01,2013-12-16 07:46:00,
2013-12-16 01:51:00,34.0,26.6,30.12,South,182,2.0,2.0,74,0.00,,---,0.00,0.00,VWS V14.01,2013-12-16 07:51:00,
2013-12-16 01:56:00,33.6,26.5,30.12,South,182,1.0,1.0,75,0.00,,---,0.00,0.00,VWS V14.01,2013-12-16 07:56:00,
2013-12-16 02:01:00,33.3,26.6,30.12,South,182,2.0,2.0,76,0.00,,---,0.00,0.00,VWS V14.01,2013-12-16 08:01:00,
2013-12-16 02:06:00,33.2,26.5,30.12,South,182,1.0,2.0,76,0.00,,---,0.00,0.00,VWS V14.01,2013-12-16 08:06:00,
2013-12-16 02:11:00,33.1,26.4,30.12,East,88,1.0,2.0,76,0.00,,---,0.00,0.00,VWS V14.01,2013-12-16 08:11:00,
2013-12-16 02:16:00,33.1,26.4,30.12,East,88,0.0,0.0,76,0.00,,---,0.00,0.00,VWS V14.01,2013-12-16 08:16:00,
2013-12-16 02:21:00,32.9,26.2,30.12,East,88,0.0,0.0,76,0.00,,---,0.00,0.00,VWS V14.01,2013-12-16 08:21:00,
2013-12-16 02:26:00,32.8,26.1,30.12,East,88,0.0,0.0,76,0.00,,---,0.00,0.00,VWS V14.01,2013-12-16 08:26:00,
2013-12-16 02:31:00,32.7,26.0,30.12,East,88,0.0,0.0,76,0.00,,---,0.00,0.00,VWS V14.01,2013-12-16 08:31:00,
2013-12-16 02:36:00,32.5,25.8,30.12,SSE,153,2.0,2.0,76,0.00,,---,0.00,0.00,VWS V14.01,2013-12-16 08:36:00,
2013-12-16 02:41:00,32.3,25.9,30.13,SSE,156,0.0,1.0,77,0.00,,---,0.00,0.00,VWS V14.01,2013-12-16 08:41:00,
2013-12-16 02:46:00,32.1,25.7,30.13,SSE,156,0.0,0.0,77,0.00,,---,0.00,0.00,VWS V14.01,2013-12-16 08:46:00,
2013-12-16 02:51:00,31.8,25.1,30.13,SSE,156,0.0,0.0,76,0.00,,---,0.00,0.00,VWS V14.01,2013-12-16 08:51:00,
2013-12-16 02:56:00,31.6,25.2,30.13,SSE,156,0.0,2.0,77,0.00,,---,0.00,0.00,VWS V14.01,2013-12-16 08:56:00,
2013-12-16 03:01:00,31.5,25.1,30.13,SSE,156,0.0,0.0,77,0.00,,---,0.00,0.00,VWS V14.01,2013-12-16 09:01:00,
2013-12-16 03:06:00,31.4,25.0,30.13,SSE,156,0.0,0.0,77,0.00,,---,0.00,0.00,VWS V14.01,2013-12-16 09:06:00,
2013-12-16 03:11:00,31.2,24.8,30.12,SSE,156,3.0,3.0,77,0.00,,---,0.00,0.00,VWS V14.01,2013-12-16 09:11:00,
2013-12-16 03:16:00,31.1,25.0,30.12,South,184,3.0,4.0,78,0.00,,---,0.00,0.00,VWS V14.01,2013-12-16 09:16:00,
2013-12-16 03:21:00,31.2,25.1,30.12,SSW,205,2.0,4.0,78,0.00,,---,0.00,0.00,VWS V14.01,2013-12-16 09:21:00,
2013-12-16 03:26:00,31.3,25.6,30.13,SW,221,3.0,3.0,79,0.00,,---,0.00,0.00,VWS V14.01,2013-12-16 09:26:00,
2013-12-16 03:31:00,31.5,25.8,30.13,SW,223,1.0,2.0,79,0.00,,---,0.00,0.00,VWS V14.01,2013-12-16 09:31:00,
2013-12-16 03:36:00,31.7,25.9,30.13,SW,223,0.0,1.0,79,0.00,,---,0.00,0.00,VWS V14.01,2013-12-16 09:36:00,
2013-12-16 03:41:00,31.7,25.9,30.13,SW,223,0.0,0.0,79,0.00,,---,0.00,0.00,VWS V14.01,2013-12-16 09:41:00,
2013-12-16 03:46:00,31.8,25.7,30.13,SW,223,0.0,1.0,78,0.00,,---,0.00,0.00,VWS V14.01,2013-12-16 09:46:00,
2013-12-16 03:51:00,31.7,25.6,30.13,SW,223,1.0,1.0,78,0.00,,---,0.00,0.00,VWS V14.01,2013-12-16 09:51:00,
2013-12-16 03:56:00,31.7,25.6,30.14,SW,223,2.0,2.0,78,0.00,,---,0.00,0.00,VWS V14.01,2013-12-16 09:56:00,
2013-12-16 04:01:00,31.6,25.9,30.14,WSW,248,2.0,2.0,79,0.00,,---,0.00,0.00,VWS V14.01,2013-12-16 10:01:00,
2013-12-16 04:06:00,31.6,25.9,30.14,WSW,248,1.0,2.0,79,0.00,,---,0.00,0.00,VWS V14.01,2013-12-16 10:06:00,
2013-12-16 04:11:00,31.4,25.6,30.13,WNW,302,2.0,2.0,79,0.00,,---,0.00,0.00,VWS V14.01,2013-12-16 10:11:00,
2013-12-16 04:16:00,31.0,25.0,30.13,WNW,302,0.0,0.0,78,0.00,,---,0.00,0.00,VWS V14.01,2013-12-16 10:16:00,
2013-12-16 04:21:00,30.8,24.8,30.12,WNW,302,1.0,1.0,78,0.00,,---,0.00,0.00,VWS V14.01,2013-12-16 10:21:00,
2013-12-16 04:26:00,30.5,24.5,30.12,WNW,302,1.0,2.0,78,0.00,,---,0.00,0.00,VWS V14.01,2013-12-16 10:26:00,
2013-12-16 04:31:00,30.1,24.1,30.12,WNW,302,1.0,2.0,78,0.00,,---,0.00,0.00,VWS V14.01,2013-12-16 10:31:00,
2013-12-16 04:36:00,29.8,23.8,30.11,WNW,302,1.0,1.0,78,0.00,,---,0.00,0.00,VWS V14.01,2013-12-16 10:36:00,
2013-12-16 04:41:00,29.6,23.6,30.11,WNW,302,1.0,2.0,78,0.00,,---,0.00,0.00,VWS V14.01,2013-12-16 10:41:00,
2013-12-16 04:45:00,29.3,23.6,30.11,WNW,302,1.0,2.0,79,0.00,,---,0.00,0.00,VWS V14.01,2013-12-16 10:45:00,
2013-12-16 04:50:00,29.1,23.4,30.11,WNW,290,1.0,2.0,79,0.00,,---,0.00,0.00,VWS V14.01,2013-12-16 10:50:00,
2013-12-16 04:55:00,29.0,23.6,30.11,SSW,213,0.0,1.0,80,0.00,,---,0.00,0.00,VWS V14.01,2013-12-16 10:55:00,
2013-12-16 05:00:00,28.8,23.4,30.10,SSW,213,0.0,1.0,80,0.00,,---,0.00,0.00,VWS V14.01,2013-12-16 11:00:00,
2013-12-16 05:05:00,28.6,23.2,30.11,SSW,213,0.0,0.0,80,0.00,,---,0.00,0.00,VWS V14.01,2013-12-16 11:05:00,
2013-12-16 05:10:00,28.6,23.5,30.11,SSW,213,0.0,0.0,81,0.00,,---,0.00,0.00,VWS V14.01,2013-12-16 11:10:00,
2013-12-16 05:15:00,28.5,23.4,30.11,SW,214,0.0,1.0,81,0.00,,---,0.00,0.00,VWS V14.01,2013-12-16 11:15:00,
2013-12-16 05:20:00,28.3,23.2,30.11,SW,214,0.0,1.0,81,0.00,,---,0.00,0.00,VWS V14.01,2013-12-16 11:20:00,
2013-12-16 05:25:00,28.1,23.0,30.11,SSW,213,2.0,3.0,81,0.00,,---,0.00,0.00,VWS V14.01,2013-12-16 11:25:00,
2013-12-16 05:30:00,27.8,22.7,30.11,SSW,213,1.0,1.0,81,0.00,,---,0.00,0.00,VWS V14.01,2013-12-16 11:30:00,
2013-12-16 05:35:00,27.4,22.4,30.11,SSW,213,1.0,2.0,81,0.00,,---,0.00,0.00,VWS V14.01,2013-12-16 11:35:00,
2013-12-16 05:40:00,27.2,22.1,30.11,SSW,213,0.0,0.0,81,0.00,,---,0.00,0.00,VWS V14.01,2013-12-16 11:40:00,
2013-12-16 05:45:00,27.1,22.1,30.12,SSW,213,1.0,1.0,81,0.00,,---,0.00,0.00,VWS V14.01,2013-12-16 11:45:00,
2013-12-16 05:50:00,27.0,22.0,30.12,SSW,213,0.0,0.0,81,0.00,,---,0.00,0.00,VWS V14.01,2013-12-16 11:50:00,
2013-12-16 05:55:00,27.0,22.2,30.12,SSW,213,0.0,0.0,82,0.00,,---,0.00,0.00,VWS V14.01,2013-12-16 11:55:00,
2013-12-16 06:01:00,26.9,22.1,30.12,SSW,213,0.0,0.0,82,0.00,,---,0.00,0.00,VWS V14.01,2013-12-16 12:01:00,
2013-12-16 06:06:00,26.8,22.0,30.12,SSW,213,0.0,0.0,82,0.00,,---,0.00,0.00,VWS V14.01,2013-12-16 12:06:00,
2013-12-16 06:11:00,26.7,22.0,30.12,SSW,213,0.0,0.0,82,0.00,,---,0.00,0.00,VWS V14.01,2013-12-16 12:11:00,
2013-12-16 06:16:00,26.6,21.9,30.12,SSW,213,0.0,0.0,82,0.00,,---,0.00,0.00,VWS V14.01,2013-12-16 12:16:00,
2013-12-16 06:21:00,26.5,21.8,30.12,SSW,213,0.0,0.0,82,0.00,,---,0.00,0.00,VWS V14.01,2013-12-16 12:21:00,
2013-12-16 06:26:00,26.4,21.7,30.13,SSW,213,1.0,1.0,82,0.00,,---,0.00,0.00,VWS V14.01,2013-12-16 12:26:00,
2013-12-16 06:31:00,26.3,21.9,30.13,SSW,213,0.0,0.0,83,0.00,,---,0.00,0.00,VWS V14.01,2013-12-16 12:31:00,
2013-12-16 06:36:00,26.2,21.8,30.13,SSW,213,0.0,0.0,83,0.00,,---,0.00,0.00,VWS V14.01,2013-12-16 12:36:00,
2013-12-16 06:41:00,26.2,21.8,30.13,SSW,213,0.0,0.0,83,0.00,,---,0.00,0.00,VWS V14.01,2013-12-16 12:41:00,
2013-12-16 06:46:00,26.4,22.2,30.13,SSW,213,0.0,0.0,84,0.00,,---,0.00,0.00,VWS V14.01,2013-12-16 12:46:00,
2013-12-16 06:51:00,26.5,22.3,30.13,SSW,213,1.0,2.0,84,0.00,,---,0.00,0.00,VWS V14.01,2013-12-16 12:51:00,
2013-12-16 06:56:00,26.6,22.4,30.13,SSW,213,0.0,1.0,84,0.00,,---,0.00,0.00,VWS V14.01,2013-12-16 12:56:00,
2013-12-16 07:01:00,26.6,22.4,30.13,SSW,213,0.0,0.0,84,0.00,,---,0.00,0.00,VWS V14.01,2013-12-16 13:01:00,
2013-12-16 07:06:00,26.6,22.4,30.13,SSW,213,0.0,0.0,84,0.00,,---,0.00,0.00,VWS V14.01,2013-12-16 13:06:00,
2013-12-16 07:11:00,26.6,22.4,30.12,SSW,213,0.0,0.0,84,0.00,,---,0.00,0.00,VWS V14.01,2013-12-16 13:11:00,
2013-12-16 07:16:00,26.6,22.4,30.13,SSW,213,0.0,0.0,84,0.00,,---,0.00,0.00,VWS V14.01,2013-12-16 13:16:00,
2013-12-16 07:21:00,26.5,22.3,30.13,SSW,213,1.0,2.0,84,0.00,,---,0.00,0.00,VWS V14.01,2013-12-16 13:21:00,
2013-12-16 07:26:00,26.2,22.0,30.13,SSW,213,1.0,3.0,84,0.00,,---,0.00,0.00,VWS V14.01,2013-12-16 13:26:00,
2013-12-16 07:31:00,25.9,21.7,30.13,SSW,213,0.0,1.0,84,0.00,,---,0.00,0.00,VWS V14.01,2013-12-16 13:31:00,
2013-12-16 07:36:00,25.7,21.5,30.13,SSW,213,0.0,0.0,84,0.00,,---,0.00,5.00,VWS V14.01,2013-12-16 13:36:00,
2013-12-16 07:40:00,25.7,21.5,30.13,SSW,213,0.0,0.0,84,0.00,,---,0.00,7.00,VWS V14.01,2013-12-16 13:40:00,
2013-12-16 07:45:00,25.6,21.5,30.14,SSW,213,0.0,0.0,84,0.00,,---,0.00,9.00,VWS V14.01,2013-12-16 13:45:00,
2013-12-16 07:50:00,25.6,21.5,30.14,SSW,213,0.0,0.0,84,0.00,,---,0.00,11.00,VWS V14.01,2013-12-16 13:50:00,
2013-12-16 07:55:00,25.7,21.5,30.14,SSW,213,0.0,0.0,84,0.00,,---,0.00,12.00,VWS V14.01,2013-12-16 13:55:00,
2013-12-16 08:01:00,25.8,21.9,30.15,SSW,213,0.0,0.0,85,0.00,,---,0.00,14.00,VWS V14.01,2013-12-16 14:01:00,
2013-12-16 08:06:00,26.0,22.1,30.15,SSW,213,0.0,0.0,85,0.00,,---,0.00,19.00,VWS V14.01,2013-12-16 14:06:00,
2013-12-16 08:11:00,26.4,22.5,30.15,SSW,213,0.0,0.0,85,0.00,,---,0.00,19.00,VWS V14.01,2013-12-16 14:11:00,
2013-12-16 08:16:00,26.6,22.7,30.14,SSW,213,0.0,0.0,85,0.00,,---,0.00,32.00,VWS V14.01,2013-12-16 14:16:00,
2013-12-16 08:21:00,26.9,23.3,30.15,SSW,213,0.0,0.0,86,0.00,,---,0.00,32.00,VWS V14.01,2013-12-16 14:21:00,
2013-12-16 08:26:00,27.2,23.6,30.15,SSW,213,0.0,0.0,86,0.00,,---,0.00,49.00,VWS V14.01,2013-12-16 14:26:00,
2013-12-16 08:31:00,27.5,23.9,30.15,SSW,213,0.0,0.0,86,0.00,,---,0.00,70.00,VWS V14.01,2013-12-16 14:31:00,
2013-12-16 08:36:00,28.2,24.8,30.15,NW,304,1.0,2.0,87,0.00,,---,0.00,121.00,VWS V14.01,2013-12-16 14:36:00,
2013-12-16 08:41:00,29.2,25.8,30.15,WNW,300,2.0,4.0,87,0.00,,---,0.00,146.00,VWS V14.01,2013-12-16 14:41:00,
2013-12-16 08:46:00,30.3,26.9,30.15,NW,315,3.0,4.0,87,0.00,,---,0.00,163.00,VWS V14.01,2013-12-16 14:46:00,
2013-12-16 08:51:00,31.2,27.5,30.15,WNW,300,1.0,3.0,86,0.00,,---,0.00,165.00,VWS V14.01,2013-12-16 14:51:00,
2013-12-16 08:56:00,32.0,28.0,30.15,NW,304,1.0,3.0,85,0.00,,---,0.00,202.00,VWS V14.01,2013-12-16 14:56:00,
2013-12-16 09:01:00,32.8,28.5,30.15,NW,320,2.0,3.0,84,0.00,,---,0.00,183.00,VWS V14.01,2013-12-16 15:01:00,
2013-12-16 09:06:00,33.5,28.6,30.15,WNW,300,3.0,3.0,82,0.00,,---,0.00,181.00,VWS V14.01,2013-12-16 15:06:00,
2013-12-16 09:11:00,34.2,28.7,30.16,West,265,3.0,4.0,80,0.00,,---,0.00,211.00,VWS V14.01,2013-12-16 15:11:00,
2013-12-16 09:16:00,34.6,28.5,30.15,West,259,4.0,4.0,78,0.00,,---,0.00,234.00,VWS V14.01,2013-12-16 15:16:00,
2013-12-16 09:21:00,35.2,28.7,30.16,WNW,283,1.0,3.0,77,0.00,,---,0.00,264.00,VWS V14.01,2013-12-16 15:21:00,
2013-12-16 09:26:00,35.8,28.7,30.16,West,263,4.0,4.0,75,0.00,,---,0.00,279.00,VWS V14.01,2013-12-16 15:26:00,
2013-12-16 09:30:00,36.4,29.2,30.16,West,280,2.0,3.0,75,0.00,,---,0.00,294.00,VWS V14.01,2013-12-16 15:30:00,
2013-12-16 09:35:00,37.1,29.6,30.16,WNW,300,1.0,3.0,74,0.00,,---,0.00,306.00,VWS V14.01,2013-12-16 15:35:00,
2013-12-16 09:40:00,37.8,29.6,30.16,WSW,254,1.0,3.0,72,0.00,,---,0.00,318.00,VWS V14.01,2013-12-16 15:40:00,
2013-12-16 09:45:00,38.6,30.0,30.16,WNW,291,1.0,3.0,71,0.00,,---,0.00,332.00,VWS V14.01,2013-12-16 15:45:00,
2013-12-16 09:50:00,39.4,30.4,30.16,West,279,2.0,2.0,70,0.00,,---,0.00,345.00,VWS V14.01,2013-12-16 15:50:00,
2013-12-16 09:55:00,40.3,31.3,30.16,WSW,248,1.0,3.0,70,0.00,,---,0.00,359.00,VWS V14.01,2013-12-16 15:55:00,
2013-12-16 10:00:00,41.1,31.0,30.16,West,279,2.0,2.0,67,0.00,,---,0.00,369.00,VWS V14.01,2013-12-16 16:00:00,
2013-12-16 10:05:00,42.0,31.5,30.16,West,279,0.0,1.0,66,0.00,,---,0.00,385.00,VWS V14.01,2013-12-16 16:05:00,
2013-12-16 10:10:00,42.9,31.6,30.16,NW,309,2.0,3.0,64,0.00,,---,0.00,394.00,VWS V14.01,2013-12-16 16:10:00,
2013-12-16 10:15:00,44.0,32.2,30.16,West,278,2.0,3.0,63,0.00,,---,0.00,404.00,VWS V14.01,2013-12-16 16:15:00,
2013-12-16 10:20:00,45.0,32.4,30.16,WNW,289,0.0,2.0,61,0.00,,---,0.00,417.00,VWS V14.01,2013-12-16 16:20:00,
2013-12-16 10:25:00,45.8,32.3,30.17,WNW,289,0.0,0.0,59,0.00,,---,0.00,427.00,VWS V14.01,2013-12-16 16:25:00,
2013-12-16 10:30:00,47.2,33.6,30.16,South,184,2.0,3.0,59,0.00,,---,0.00,439.00,VWS V14.01,2013-12-16 16:30:00,
2013-12-16 10:35:00,48.7,34.6,30.16,South,184,1.0,2.0,58,0.00,,---,0.00,448.00,VWS V14.01,2013-12-16 16:35:00,
2013-12-16 10:40:00,49.8,35.2,30.16,SE,133,3.0,3.0,57,0.00,,---,0.00,457.00,VWS V14.01,2013-12-16 16:40:00,
2013-12-16 10:45:00,50.6,35.5,30.16,SSE,165,3.0,4.0,56,0.00,,---,0.00,466.00,VWS V14.01,2013-12-16 16:45:00,
2013-12-16 10:50:00,51.4,34.4,30.16,SW,235,4.0,4.0,52,0.00,,---,0.00,476.00,VWS V14.01,2013-12-16 16:50:00,
2013-12-16 10:55:00,51.7,34.7,30.16,SSW,196,5.0,5.0,52,0.00,,---,0.00,483.00,VWS V14.01,2013-12-16 16:55:00,
2013-12-16 11:00:00,52.4,34.8,30.16,SE,134,2.0,3.0,51,0.00,,---,0.00,494.00,VWS V14.01,2013-12-16 17:00:00,
2013-12-16 11:05:00,53.1,35.5,30.15,SSW,212,2.0,4.0,51,0.00,,---,0.00,499.00,VWS V14.01,2013-12-16 17:05:00,
2013-12-16 11:10:00,53.8,35.6,30.15,SSE,152,5.0,6.0,50,0.00,,---,0.00,510.00,VWS V14.01,2013-12-16 17:10:00,
2013-12-16 11:15:00,54.4,35.1,30.15,SW,227,3.0,5.0,48,0.00,,---,0.00,517.00,VWS V14.01,2013-12-16 17:15:00,
2013-12-16 11:20:00,54.8,36.0,30.15,SSW,203,3.0,4.0,49,0.00,,---,0.00,522.00,VWS V14.01,2013-12-16 17:20:00,
2013-12-16 11:25:00,55.2,35.9,30.15,South,185,3.0,4.0,48,0.00,,---,0.00,527.00,VWS V14.01,2013-12-16 17:25:00,
2013-12-16 11:30:00,55.9,36.0,30.14,SSW,209,2.0,5.0,47,0.00,,---,0.00,534.00,VWS V14.01,2013-12-16 17:30:00,
2013-12-16 11:35:00,57.0,35.3,30.14,SSW,199,3.0,4.0,44,0.00,,---,0.00,541.00,VWS V14.01,2013-12-16 17:35:00,
2013-12-16 11:40:00,57.8,34.9,30.14,SSW,211,4.0,5.0,42,0.00,,---,0.00,547.00,VWS V14.01,2013-12-16 17:40:00,
2013-12-16 11:45:00,58.5,33.7,30.13,SW,224,2.0,5.0,39,0.00,,---,0.00,550.00,VWS V14.01,2013-12-16 17:45:00,
2013-12-16 11:50:00,59.4,33.8,30.13,South,169,4.0,4.0,38,0.00,,---,0.00,554.00,VWS V14.01,2013-12-16 17:50:00,
2013-12-16 11:55:00,60.1,33.1,30.13,WSW,238,4.0,6.0,36,0.00,,---,0.00,559.00,VWS V14.01,2013-12-16 17:55:00,
2013-12-16 12:00:00,60.7,34.3,30.12,SW,223,6.0,7.0,37,0.00,,---,0.00,563.00,VWS V14.01,2013-12-16 18:00:00,
2013-12-16 12:05:00,61.2,34.1,30.12,South,170,4.0,6.0,36,0.00,,---,0.00,564.00,VWS V14.01,2013-12-16 18:05:00,
2013-12-16 12:10:00,61.7,33.8,30.12,SW,218,6.0,6.0,35,0.00,,---,0.00,568.00,VWS V14.01,2013-12-16 18:10:00,
2013-12-16 12:15:00,61.9,34.0,30.12,SW,217,5.0,8.0,35,0.00,,---,0.00,570.00,VWS V14.01,2013-12-16 18:15:00,
2013-12-16 12:20:00,62.3,35.0,30.11,SSW,209,4.0,7.0,36,0.00,,---,0.00,571.00,VWS V14.01,2013-12-16 18:20:00,
2013-12-16 12:25:00,62.9,35.6,30.11,South,190,4.0,5.0,36,0.00,,---,0.00,573.00,VWS V14.01,2013-12-16 18:25:00,
2013-12-16 12:30:00,63.5,33.9,30.11,SSE,163,6.0,6.0,33,0.00,,---,0.00,573.00,VWS V14.01,2013-12-16 18:30:00,
2013-12-16 12:35:00,64.0,34.3,30.11,SSW,192,6.0,7.0,33,0.00,,---,0.00,573.00,VWS V14.01,2013-12-16 18:35:00,
2013-12-16 12:40:00,64.5,33.2,30.10,SSW,208,5.0,7.0,31,0.00,,---,0.00,571.00,VWS V14.01,2013-12-16 18:40:00,
2013-12-16 12:45:00,64.8,33.5,30.10,South,181,6.0,10.0,31,0.00,,---,0.00,571.00,VWS V14.01,2013-12-16 18:45:00,
2013-12-16 12:50:00,65.1,34.5,30.10,SSE,153,6.0,12.0,32,0.00,,---,0.00,570.00,VWS V14.01,2013-12-16 18:50:00,
2013-12-16 12:55:00,65.4,36.3,30.09,SE,146,6.0,6.0,34,0.00,,---,0.00,568.00,VWS V14.01,2013-12-16 18:55:00,
2013-12-16 13:01:00,65.6,35.8,30.09,South,178,8.0,11.0,33,0.00,,---,0.00,568.00,VWS V14.01,2013-12-16 19:01:00,
2013-12-16 13:06:00,65.3,35.5,30.09,SSE,167,11.0,14.0,33,0.00,,---,0.00,564.00,VWS V14.01,2013-12-16 19:06:00,
2013-12-16 13:11:00,64.9,36.6,30.09,SSE,166,11.0,14.0,35,0.00,,---,0.00,559.00,VWS V14.01,2013-12-16 19:11:00,
2013-12-16 13:16:00,64.7,36.4,30.09,SSE,148,6.0,14.0,35,0.00,,---,0.00,557.00,VWS V14.01,2013-12-16 19:16:00,
2013-12-16 13:21:00,64.8,36.5,30.09,SSE,157,4.0,7.0,35,0.00,,---,0.00,554.00,VWS V14.01,2013-12-16 19:21:00,
2013-12-16 13:26:00,65.2,36.2,30.08,SSE,159,12.0,16.0,34,0.00,,---,0.00,550.00,VWS V14.01,2013-12-16 19:26:00,
2013-12-16 13:31:00,65.6,35.8,30.08,SSE,161,6.0,10.0,33,0.00,,---,0.00,545.00,VWS V14.01,2013-12-16 19:31:00,
2013-12-16 13:35:00,66.2,33.9,30.08,SSW,195,7.0,11.0,30,0.00,,---,0.00,540.00,VWS V14.01,2013-12-16 19:35:00,
2013-12-16 13:40:00,66.5,33.3,30.08,SSW,212,10.0,12.0,29,0.00,,---,0.00,534.00,VWS V14.01,2013-12-16 19:40:00,
2013-12-16 13:45:00,66.7,32.6,30.08,SW,217,5.0,9.0,28,0.00,,---,0.00,529.00,VWS V14.01,2013-12-16 19:45:00,
2013-12-16 13:50:00,67.2,33.0,30.08,South,187,5.0,6.0,28,0.00,,---,0.00,524.00,VWS V14.01,2013-12-16 19:50:00,
2013-12-16 13:55:00,67.3,31.3,30.08,SSW,207,11.0,11.0,26,0.00,,---,0.00,519.00,VWS V14.01,2013-12-16 19:55:00,
2013-12-16 14:00:00,67.4,31.4,30.08,SSW,199,6.0,9.0,26,0.00,,---,0.00,510.00,VWS V14.01,2013-12-16 20:00:00,
2013-12-16 14:05:00,67.6,32.5,30.08,SSE,163,6.0,7.0,27,0.00,,---,0.00,504.00,VWS V14.01,2013-12-16 20:05:00,
2013-12-16 14:10:00,67.8,30.7,30.08,SSW,202,4.0,9.0,25,0.00,,---,0.00,496.00,VWS V14.01,2013-12-16 20:10:00,
2013-12-16 14:15:00,68.1,32.0,30.08,SSW,213,5.0,6.0,26,0.00,,---,0.00,487.00,VWS V14.01,2013-12-16 20:15:00,
2013-12-16 14:20:00,68.3,30.1,30.08,SW,232,9.0,11.0,24,0.00,,---,0.00,478.00,VWS V14.01,2013-12-16 20:20:00,
2013-12-16 14:25:00,68.5,30.3,30.08,South,190,7.0,10.0,24,0.00,,---,0.00,469.00,VWS V14.01,2013-12-16 20:25:00,
2013-12-16 14:30:00,68.7,31.5,30.08,South,180,4.0,6.0,25,0.00,,---,0.00,461.00,VWS V14.01,2013-12-16 20:30:00,
2013-12-16 14:35:00,69.0,30.7,30.08,SSW,192,4.0,7.0,24,0.00,,---,0.00,452.00,VWS V14.01,2013-12-16 20:35:00,
2013-12-16 14:40:00,69.1,30.8,30.08,South,188,4.0,6.0,24,0.00,,---,0.00,443.00,VWS V14.01,2013-12-16 20:40:00,
2013-12-16 14:45:00,69.0,29.7,30.08,SSW,204,6.0,6.0,23,0.00,,---,0.00,432.00,VWS V14.01,2013-12-16 20:45:00,
2013-12-16 14:50:00,68.9,30.6,30.08,SSW,197,4.0,9.0,24,0.00,,---,0.00,420.00,VWS V14.01,2013-12-16 20:50:00,
2013-12-16 14:55:00,69.0,31.8,30.08,SSW,193,9.0,9.0,25,0.00,,---,0.00,410.00,VWS V14.01,2013-12-16 20:55:00,
2013-12-16 15:00:00,69.1,30.8,30.08,South,184,2.0,4.0,24,0.00,,---,0.00,399.00,VWS V14.01,2013-12-16 21:00:00,
2013-12-16 15:05:00,69.3,31.0,30.08,South,175,6.0,6.0,24,0.00,,---,0.00,387.00,VWS V14.01,2013-12-16 21:05:00,
2013-12-16 15:10:00,69.4,31.1,30.08,SSE,149,4.0,6.0,24,0.00,,---,0.00,373.00,VWS V14.01,2013-12-16 21:10:00,
2013-12-16 15:15:00,69.4,30.0,30.08,South,186,5.0,10.0,23,0.00,,---,0.00,362.00,VWS V14.01,2013-12-16 21:15:00,
2013-12-16 15:20:00,69.4,31.1,30.08,SSW,196,6.0,7.0,24,0.00,,---,0.00,350.00,VWS V14.01,2013-12-16 21:20:00,
2013-12-16 15:25:00,69.2,30.9,30.08,South,182,3.0,10.0,24,0.00,,---,0.00,338.00,VWS V14.01,2013-12-16 21:25:00,
2013-12-16 15:30:00,69.2,30.9,30.08,South,178,5.0,6.0,24,0.00,,---,0.00,323.00,VWS V14.01,2013-12-16 21:30:00,
2013-12-16 15:35:00,69.2,30.9,30.08,SSE,158,7.0,7.0,24,0.00,,---,0.00,309.00,VWS V14.01,2013-12-16 21:35:00,
2013-12-16 15:40:00,69.2,30.9,30.08,SSE,167,3.0,4.0,24,0.00,,---,0.00,294.00,VWS V14.01,2013-12-16 21:40:00,
2013-12-16 15:45:00,69.0,31.8,30.08,SSE,159,6.0,9.0,25,0.00,,---,0.00,276.00,VWS V14.01,2013-12-16 21:45:00,
2013-12-16 15:50:00,68.9,32.6,30.08,SE,146,5.0,9.0,26,0.00,,---,0.00,260.00,VWS V14.01,2013-12-16 21:50:00,
2013-12-16 15:55:00,68.8,31.6,30.08,SSE,154,4.0,6.0,25,0.00,,---,0.00,243.00,VWS V14.01,2013-12-16 21:55:00,
2013-12-16 16:00:00,68.7,32.5,30.08,South,180,4.0,5.0,26,0.00,,---,0.00,223.00,VWS V14.01,2013-12-16 22:00:00,
2013-12-16 16:05:00,68.6,32.4,30.08,ESE,121,3.0,4.0,26,0.00,,---,0.00,204.00,VWS V14.01,2013-12-16 22:05:00,
2013-12-16 16:10:00,68.5,31.3,30.08,SSE,165,6.0,10.0,25,0.00,,---,0.00,186.00,VWS V14.01,2013-12-16 22:10:00,
2013-12-16 16:15:00,68.2,32.0,30.08,SSE,164,5.0,5.0,26,0.00,,---,0.00,165.00,VWS V14.01,2013-12-16 22:15:00,
2013-12-16 16:20:00,68.1,32.0,30.08,SE,146,4.0,5.0,26,0.00,,---,0.00,146.00,VWS V14.01,2013-12-16 22:20:00,
2013-12-16 16:25:00,67.8,30.7,30.08,SSE,149,6.0,7.0,25,0.00,,---,0.00,132.00,VWS V14.01,2013-12-16 22:25:00,
2013-12-16 16:30:00,67.5,30.5,30.08,South,170,3.0,6.0,25,0.00,,---,0.00,113.00,VWS V14.01,2013-12-16 22:30:00,
2013-12-16 16:35:00,67.2,31.2,30.08,SSE,155,4.0,5.0,26,0.00,,---,0.00,95.00,VWS V14.01,2013-12-16 22:35:00,
2013-12-16 16:40:00,66.9,30.9,30.08,SSE,162,4.0,6.0,26,0.00,,---,0.00,79.00,VWS V14.01,2013-12-16 22:40:00,
2013-12-16 16:45:00,66.6,30.7,30.08,SSE,155,4.0,5.0,26,0.00,,---,0.00,63.00,VWS V14.01,2013-12-16 22:45:00,
2013-12-16 16:50:00,66.1,30.2,30.08,SSE,160,3.0,5.0,26,0.00,,---,0.00,49.00,VWS V14.01,2013-12-16 22:50:00,
2013-12-16 16:55:00,65.8,30.0,30.08,SSE,165,4.0,6.0,26,0.00,,---,0.00,37.00,VWS V14.01,2013-12-16 22:55:00,
2013-12-16 17:00:00,65.4,30.6,30.08,SSE,163,5.0,5.0,27,0.00,,---,0.00,25.00,VWS V14.01,2013-12-16 23:00:00,
2013-12-16 17:05:00,65.0,31.1,30.08,SSE,162,3.0,3.0,28,0.00,,---,0.00,18.00,VWS V14.01,2013-12-16 23:05:00,
2013-12-16 17:10:00,64.6,30.8,30.09,SSE,159,4.0,4.0,28,0.00,,---,0.00,14.00,VWS V14.01,2013-12-16 23:10:00,
2013-12-16 17:15:00,64.2,31.3,30.08,SSE,163,4.0,4.0,29,0.00,,---,0.00,12.00,VWS V14.01,2013-12-16 23:15:00,
2013-12-16 17:20:00,63.6,31.6,30.09,SSE,154,1.0,2.0,30,0.00,,---,0.00,11.00,VWS V14.01,2013-12-16 23:20:00,
2013-12-16 17:25:00,63.3,32.2,30.09,SSE,154,2.0,2.0,31,0.00,,---,0.00,7.00,VWS V14.01,2013-12-16 23:25:00,
2013-12-16 17:30:00,62.7,31.6,30.09,SSE,161,3.0,3.0,31,0.00,,---,0.00,5.00,VWS V14.01,2013-12-16 23:30:00,
2013-12-16 17:35:00,61.9,31.7,30.09,SSE,161,2.0,2.0,32,0.00,,---,0.00,0.00,VWS V14.01,2013-12-16 23:35:00,
2013-12-16 17:40:00,61.2,32.6,30.09,SSE,161,1.0,1.0,34,0.00,,---,0.00,0.00,VWS V14.01,2013-12-16 23:40:00,
2013-12-16 17:45:00,60.3,32.6,30.09,SSE,161,2.0,2.0,35,0.00,,---,0.00,0.00,VWS V14.01,2013-12-16 23:45:00,
2013-12-16 17:50:00,59.4,32.5,30.09,SSE,161,2.0,2.0,36,0.00,,---,0.00,0.00,VWS V14.01,2013-12-16 23:50:00,
2013-12-16 17:55:00,58.5,32.3,30.09,SSE,161,2.0,2.0,37,0.00,,---,0.00,0.00,VWS V14.01,2013-12-16 23:55:00,
2013-12-16 18:00:00,57.3,32.6,30.09,SSE,161,2.0,2.0,39,0.00,,---,0.00,0.00,VWS V14.01,2013-12-17 00:00:00,
2013-12-16 18:05:00,55.6,32.3,30.09,SSE,161,2.0,2.0,41,0.00,,---,0.00,0.00,VWS V14.01,2013-12-17 00:05:00,
2013-12-16 18:10:00,53.5,32.1,30.10,SSE,161,2.0,2.0,44,0.00,,---,0.00,0.00,VWS V14.01,2013-12-17 00:10:00,
2013-12-16 18:15:00,52.1,32.5,30.10,SSE,161,2.0,2.0,47,0.00,,---,0.00,0.00,VWS V14.01,2013-12-17 00:15:00,
2013-12-16 18:20:00,51.5,32.5,30.10,SSE,161,2.0,3.0,48,0.00,,---,0.00,0.00,VWS V14.01,2013-12-17 00:20:00,
2013-12-16 18:25:00,50.5,32.1,30.10,SSE,161,1.0,2.0,49,0.00,,---,0.00,0.00,VWS V14.01,2013-12-17 00:25:00,
2013-12-16 18:30:00,49.5,32.1,30.10,SSE,161,1.0,2.0,51,0.00,,---,0.00,0.00,VWS V14.01,2013-12-17 00:30:00,
2013-12-16 18:35:00,48.5,31.7,30.10,SSE,161,1.0,2.0,52,0.00,,---,0.00,0.00,VWS V14.01,2013-12-17 00:35:00,
2013-12-16 18:40:00,47.5,31.7,30.10,SSE,161,4.0,4.0,54,0.00,,---,0.00,0.00,VWS V14.01,2013-12-17 00:40:00,
2013-12-16 18:45:00,47.0,30.8,30.10,SSE,161,1.0,2.0,53,0.00,,---,0.00,0.00,VWS V14.01,2013-12-17 00:45:00,
2013-12-16 18:50:00,47.0,30.3,30.10,SSE,161,2.0,3.0,52,0.00,,---,0.00,0.00,VWS V14.01,2013-12-17 00:50:00,
2013-12-16 18:55:00,47.2,30.5,30.10,SSE,161,2.0,2.0,52,0.00,,---,0.00,0.00,VWS V14.01,2013-12-17 00:55:00,
2013-12-16 19:00:00,47.2,31.4,30.10,SSE,161,1.0,2.0,54,0.00,,---,0.00,0.00,VWS V14.01,2013-12-17 01:00:00,
2013-12-16 19:05:00,46.7,31.9,30.10,SSE,161,1.0,2.0,56,0.00,,---,0.00,0.00,VWS V14.01,2013-12-17 01:05:00,
2013-12-16 19:10:00,46.4,32.0,30.11,SSE,161,1.0,2.0,57,0.00,,---,0.00,0.00,VWS V14.01,2013-12-17 01:10:00,
2013-12-16 19:15:00,46.0,32.1,30.11,SSE,161,1.0,2.0,58,0.00,,---,0.00,0.00,VWS V14.01,2013-12-17 01:15:00,
2013-12-16 19:20:00,45.5,31.6,30.11,SSE,161,1.0,2.0,58,0.00,,---,0.00,0.00,VWS V14.01,2013-12-17 01:20:00,
2013-12-16 19:25:00,44.9,31.5,30.11,SSE,161,2.0,2.0,59,0.00,,---,0.00,0.00,VWS V14.01,2013-12-17 01:25:00,
2013-12-16 19:30:00,44.3,31.3,30.11,SSE,161,1.0,1.0,60,0.00,,---,0.00,0.00,VWS V14.01,2013-12-17 01:30:00,
2013-12-16 19:35:00,43.9,30.9,30.11,SSE,161,1.0,2.0,60,0.00,,---,0.00,0.00,VWS V14.01,2013-12-17 01:35:00,
2013-12-16 19:40:00,43.4,31.3,30.12,SSE,161,2.0,2.0,62,0.00,,---,0.00,0.00,VWS V14.01,2013-12-17 01:40:00,
2013-12-16 19:45:00,43.0,30.9,30.12,SSE,161,2.0,3.0,62,0.00,,---,0.00,0.00,VWS V14.01,2013-12-17 01:45:00,
2013-12-16 19:50:00,42.4,30.7,30.12,SSE,161,2.0,2.0,63,0.00,,---,0.00,0.00,VWS V14.01,2013-12-17 01:50:00,
2013-12-16 19:55:00,42.2,30.5,30.12,SSE,161,1.0,2.0,63,0.00,,---,0.00,0.00,VWS V14.01,2013-12-17 01:55:00,
2013-12-16 20:00:00,42.1,30.4,30.12,SSE,161,2.0,3.0,63,0.00,,---,0.00,0.00,VWS V14.01,2013-12-17 02:00:00,
2013-12-16 20:05:00,42.2,30.5,30.12,SSE,161,2.0,2.0,63,0.00,,---,0.00,0.00,VWS V14.01,2013-12-17 02:05:00,
2013-12-16 20:10:00,42.2,30.9,30.12,SSE,161,1.0,2.0,64,0.00,,---,0.00,0.00,VWS V14.01,2013-12-17 02:10:00,
2013-12-16 20:15:00,42.1,30.8,30.12,SSE,161,1.0,2.0,64,0.00,,---,0.00,0.00,VWS V14.01,2013-12-17 02:15:00,
2013-12-16 20:20:00,41.9,30.6,30.12,SSE,161,1.0,2.0,64,0.00,,---,0.00,0.00,VWS V14.01,2013-12-17 02:20:00,
2013-12-16 20:25:00,41.8,30.5,30.12,South,169,4.0,4.0,64,0.00,,---,0.00,0.00,VWS V14.01,2013-12-17 02:25:00,
2013-12-16 20:30:00,42.2,29.7,30.12,SSE,165,3.0,4.0,61,0.00,,---,0.00,0.00,VWS V14.01,2013-12-17 02:30:00,
2013-12-16 20:35:00,43.0,29.7,30.12,South,171,4.0,4.0,59,0.00,,---,0.00,0.00,VWS V14.01,2013-12-17 02:35:00,
2013-12-16 20:40:00,44.2,29.5,30.12,South,169,2.0,3.0,56,0.00,,---,0.00,0.00,VWS V14.01,2013-12-17 02:40:00,
2013-12-16 20:45:00,45.2,29.6,30.12,SSE,168,3.0,4.0,54,0.00,,---,0.00,0.00,VWS V14.01,2013-12-17 02:45:00,
2013-12-16 20:50:00,45.9,29.8,30.12,SSE,168,2.0,3.0,53,0.00,,---,0.00,0.00,VWS V14.01,2013-12-17 02:50:00,
2013-12-16 20:55:00,46.6,29.5,30.12,SSE,168,2.0,2.0,51,0.00,,---,0.00,0.00,VWS V14.01,2013-12-17 02:55:00,
2013-12-16 21:00:00,46.9,29.7,30.12,SSE,168,1.0,3.0,51,0.00,,---,0.00,0.00,VWS V14.01,2013-12-17 03:00:00,
2013-12-16 21:05:00,47.0,29.3,30.12,SSE,168,1.0,1.0,50,0.00,,---,0.00,0.00,VWS V14.01,2013-12-17 03:05:00,
2013-12-16 21:10:00,46.6,29.5,30.13,SSE,168,1.0,1.0,51,0.00,,---,0.00,0.00,VWS V14.01,2013-12-17 03:10:00,
2013-12-16 21:15:00,46.3,29.6,30.12,SSE,168,0.0,1.0,52,0.00,,---,0.00,0.00,VWS V14.01,2013-12-17 03:15:00,
2013-12-16 21:20:00,46.0,29.4,30.13,SSE,168,0.0,0.0,52,0.00,,---,0.00,0.00,VWS V14.01,2013-12-17 03:20:00,
2013-12-16 21:25:00,44.9,29.3,30.13,NNE,21,3.0,4.0,54,0.00,,---,0.00,0.00,VWS V14.01,2013-12-17 03:25:00,
2013-12-16 21:30:00,43.3,29.1,30.14,North,11,2.0,3.0,57,0.00,,---,0.00,0.00,VWS V14.01,2013-12-17 03:30:00,
2013-12-16 21:35:00,42.3,29.4,30.14,North,11,1.0,1.0,60,0.00,,---,0.00,0.00,VWS V14.01,2013-12-17 03:35:00,
2013-12-16 21:40:00,41.6,29.6,30.14,North,11,1.0,2.0,62,0.00,,---,0.00,0.00,VWS V14.01,2013-12-17 03:40:00,
2013-12-16 21:45:00,41.3,29.3,30.14,North,11,0.0,0.0,62,0.00,,---,0.00,0.00,VWS V14.01,2013-12-17 03:45:00,
2013-12-16 21:50:00,41.0,29.4,30.14,North,11,1.0,2.0,63,0.00,,---,0.00,0.00,VWS V14.01,2013-12-17 03:50:00,
2013-12-16 21:55:00,40.5,29.7,30.14,North,11,1.0,2.0,65,0.00,,---,0.00,0.00,VWS V14.01,2013-12-17 03:55:00,
2013-12-16 22:00:00,40.1,29.3,30.14,North,11,1.0,1.0,65,0.00,,---,0.00,0.00,VWS V14.01,2013-12-17 04:00:00,
2013-12-16 22:05:00,39.8,29.4,30.15,North,11,0.0,1.0,66,0.00,,---,0.00,0.00,VWS V14.01,2013-12-17 04:05:00,
2013-12-16 22:10:00,39.7,29.3,30.14,North,11,0.0,0.0,66,0.00,,---,0.00,0.00,VWS V14.01,2013-12-17 04:10:00,
2013-12-16 22:15:00,39.5,29.5,30.15,North,11,1.0,2.0,67,0.00,,---,0.00,0.00,VWS V14.01,2013-12-17 04:15:00,
2013-12-16 22:20:00,39.3,29.3,30.15,North,11,0.0,0.0,67,0.00,,---,0.00,0.00,VWS V14.01,2013-12-17 04:20:00,
2013-12-16 22:25:00,39.2,29.2,30.15,North,11,0.0,0.0,67,0.00,,---,0.00,0.00,VWS V14.01,2013-12-17 04:25:00,
2013-12-16 22:30:00,39.1,29.1,30.15,North,11,0.0,0.0,67,0.00,,---,0.00,0.00,VWS V14.01,2013-12-17 04:30:00,
2013-12-16 22:35:00,38.9,29.2,30.15,North,11,0.0,0.0,68,0.00,,---,0.00,0.00,VWS V14.01,2013-12-17 04:35:00,
2013-12-16 22:40:00,38.7,28.7,30.15,North,11,0.0,0.0,67,0.00,,---,0.00,0.00,VWS V14.01,2013-12-17 04:40:00,
2013-12-16 22:45:00,38.3,28.3,30.15,North,11,0.0,0.0,67,0.00,,---,0.00,0.00,VWS V14.01,2013-12-17 04:45:00,
2013-12-16 22:50:00,38.0,28.0,30.16,North,11,0.0,0.0,67,0.00,,---,0.00,0.00,VWS V14.01,2013-12-17 04:50:00,
2013-12-16 22:55:00,37.8,28.2,30.15,North,11,0.0,1.0,68,0.00,,---,0.00,0.00,VWS V14.01,2013-12-17 04:55:00,
2013-12-16 23:00:00,37.6,28.0,30.15,North,11,1.0,1.0,68,0.00,,---,0.00,0.00,VWS V14.01,2013-12-17 05:00:00,
2013-12-16 23:01:00,37.5,27.9,30.16,North,11,1.0,1.0,68,0.00,,---,0.00,0.00,VWS V14.01,2013-12-17 05:01:00,
2013-12-16 23:06:00,37.0,27.4,30.16,North,11,1.0,1.0,68,0.00,,---,0.00,0.00,VWS V14.01,2013-12-17 05:06:00,
2013-12-16 23:11:00,36.8,27.2,30.16,North,11,0.0,1.0,68,0.00,,---,0.00,0.00,VWS V14.01,2013-12-17 05:11:00,
2013-12-16 23:16:00,36.4,26.9,30.16,North,11,0.0,0.0,68,0.00,,---,0.00,0.00,VWS V14.01,2013-12-17 05:16:00,
2013-12-16 23:21:00,36.1,26.9,30.17,North,11,0.0,0.0,69,0.00,,---,0.00,0.00,VWS V14.01,2013-12-17 05:21:00,
2013-12-16 23:26:00,35.8,26.6,30.16,North,11,0.0,2.0,69,0.00,,---,0.00,0.00,VWS V14.01,2013-12-17 05:26:00,
2013-12-16 23:31:00,35.4,26.6,30.17,North,11,0.0,0.0,70,0.00,,---,0.00,0.00,VWS V14.01,2013-12-17 05:31:00,
2013-12-16 23:36:00,35.0,26.2,30.16,ENE,61,2.0,3.0,70,0.00,,---,0.00,0.00,VWS V14.01,2013-12-17 05:36:00,
2013-12-16 23:41:00,34.4,26.0,30.16,ENE,61,0.0,1.0,71,0.00,,---,0.00,0.00,VWS V14.01,2013-12-17 05:41:00,
2013-12-16 23:46:00,34.2,25.8,30.17,ENE,61,0.0,0.0,71,0.00,,---,0.00,0.00,VWS V14.01,2013-12-17 05:46:00,
2013-12-16 23:51:00,33.9,25.8,30.16,SSW,204,2.0,3.0,72,0.00,,---,0.00,0.00,VWS V14.01,2013-12-17 05:51:00,
2013-12-16 23:56:00,33.7,26.0,30.16,SSW,204,0.0,1.0,73,0.00,,---,0.00,0.00,VWS V14.01,2013-12-17 05:56:00,